Time;durP1;ratioP1;P1;durP2;ratioP2;P2;SDS_P1;SDS_P2;PMS_P1;PMS_P2;Temp;Humidity;BMP_temperature;BMP_pressure;BME280_temperature;BME280_humidity;BME280_pressure;Samples;Min_cycle;Max_cycle;Signal;HPM_P1;HPM_P2
2022/01/15 00:02:22;;;;;;;16.50;8.00;;;;;;;0.68;100.00;99603.47;4483630;31;20122;-70
2022/01/15 00:04:50;;;;;;;19.90;8.60;;;;;;;0.61;100.00;99607.16;4484037;32;20115;-71
2022/01/15 00:07:17;;;;;;;19.08;8.57;;;;;;;0.53;100.00;99609.19;4483931;31;20517;-71
2022/01/15 00:09:49;;;;;;;16.92;8.38;;;;;;;0.50;100.00;99604.97;4483793;31;20425;-70
2022/01/15 00:12:16;;;;;;;13.85;6.45;;;;;;;0.49;100.00;99605.00;4483901;31;20681;-71
2022/01/15 00:14:44;;;;;;;16.05;7.10;;;;;;;0.40;100.00;99601.00;4483556;31;20141;-70
2022/01/15 00:17:19;;;;;;;15.60;6.87;;;;;;;0.38;100.00;99613.13;4483439;31;20486;-71
2022/01/15 00:19:47;;;;;;;17.10;8.20;;;;;;;0.39;100.00;99612.19;4483616;31;20541;-71
2022/01/15 00:22:16;;;;;;;15.40;6.28;;;;;;;0.37;100.00;99615.75;4469683;32;20096;-71
2022/01/15 00:24:45;;;;;;;20.45;8.45;;;;;;;0.45;100.00;99606.00;4470125;32;20097;-71
2022/01/15 00:27:13;;;;;;;16.17;8.00;;;;;;;0.42;100.00;99609.53;4470120;32;20467;-70
2022/01/15 00:29:41;;;;;;;16.80;7.85;;;;;;;0.50;100.00;99617.84;4470153;32;20096;-70
2022/01/15 00:32:08;;;;;;;19.25;7.87;;;;;;;0.53;100.00;99632.38;4470444;32;20096;-70
2022/01/15 00:34:35;;;;;;;16.98;7.90;;;;;;;0.50;100.00;99638.47;4470279;32;20105;-70
2022/01/15 00:37:03;;;;;;;17.95;7.60;;;;;;;0.54;100.00;99628.88;4470306;32;20403;-70
2022/01/15 00:39:31;;;;;;;14.93;7.55;;;;;;;0.55;100.00;99625.44;4469953;32;20166;-71
2022/01/15 00:41:58;;;;;;;14.95;6.15;;;;;;;0.51;100.00;99627.25;4470260;32;20481;-71
2022/01/15 00:44:25;;;;;;;13.18;7.50;;;;;;;0.63;100.00;99633.72;4470060;32;20115;-70
2022/01/15 00:46:52;;;;;;;16.12;6.72;;;;;;;0.68;100.00;99631.00;4470055;32;20180;-71
2022/01/15 00:49:20;;;;;;;11.93;6.18;;;;;;;0.66;100.00;99632.78;4469984;32;20096;-70
2022/01/15 00:51:47;;;;;;;14.68;7.25;;;;;;;0.59;100.00;99636.47;4470038;32;20417;-70
2022/01/15 00:54:14;;;;;;;17.30;7.35;;;;;;;0.51;100.00;99644.47;4469898;32;20084;-70
2022/01/15 00:56:41;;;;;;;16.30;6.53;;;;;;;0.47;100.00;99655.75;4470192;32;20112;-71
2022/01/15 00:59:08;;;;;;;27.42;7.97;;;;;;;0.47;100.00;99648.88;4469769;32;20092;-71
2022/01/15 01:01:35;;;;;;;15.23;6.97;;;;;;;0.49;100.00;99656.56;4480451;32;20168;-70
2022/01/15 01:04:03;;;;;;;18.00;7.53;;;;;;;0.54;100.00;99644.34;4485503;32;20115;-71
2022/01/15 01:06:30;;;;;;;18.37;7.60;;;;;;;0.57;100.00;99662.31;4485674;31;20117;-71
2022/01/15 01:08:57;;;;;;;13.62;5.82;;;;;;;0.57;100.00;99664.88;4485610;31;20450;-71
2022/01/15 01:11:47;;;;;;;17.12;7.87;;;;;;;0.59;100.00;99672.56;4485678;31;20458;-71
2022/01/15 01:20:09;;;;;;;13.60;7.55;;;;;;;0.45;100.00;99679.00;4485408;31;20231;-70
2022/01/15 01:22:57;;;;;;;12.32;6.00;;;;;;;0.47;100.00;99682.41;4469809;32;20096;-71
2022/01/15 01:25:31;;;;;;;12.70;6.40;;;;;;;0.56;100.00;99682.97;4470072;32;20089;-71
2022/01/15 01:28:06;;;;;;;13.70;6.45;;;;;;;0.63;100.00;99676.72;4469826;32;20108;-71
2022/01/15 01:31:20;;;;;;;;;;;;;;;0.67;100.00;99684.31;4470187;32;20430;-71
2022/01/15 01:36:13;;;;;;;12.75;5.05;;;;;;;0.76;100.00;99675.41;4469956;32;20453;-70
2022/01/15 01:41:16;;;;;;;13.85;7.03;;;;;;;0.82;100.00;99685.53;4469868;32;20438;-71
2022/01/15 01:44:04;;;;;;;13.60;6.30;;;;;;;0.83;100.00;99688.94;4469644;32;20119;-71
2022/01/15 01:49:03;;;;;;;15.13;7.05;;;;;;;0.84;100.00;99676.00;4469529;32;20123;-70
2022/01/15 01:51:34;;;;;;;12.07;6.82;;;;;;;0.78;100.00;99668.47;4468235;32;20147;-69
2022/01/15 01:54:04;;;;;;;12.18;5.37;;;;;;;0.76;100.00;99672.84;4469478;32;20527;-70
2022/01/15 01:56:32;;;;;;;18.87;7.60;;;;;;;0.69;100.00;99661.88;4469821;32;20112;-70
2022/01/15 01:59:00;;;;;;;18.00;6.10;;;;;;;0.64;100.00;99663.78;4469391;32;20097;-71
2022/01/15 02:01:27;;;;;;;8.20;4.35;;;;;;;0.56;100.00;99657.19;4479188;32;20417;-70
2022/01/15 02:03:59;;;;;;;10.88;5.55;;;;;;;0.45;100.00;99636.94;4485302;31;20104;-70
2022/01/15 02:06:27;;;;;;;15.82;7.37;;;;;;;0.35;100.00;99634.69;4485221;31;20488;-70
2022/01/15 02:08:55;;;;;;;13.07;6.10;;;;;;;0.24;100.00;99641.06;4485198;31;20092;-71
2022/01/15 02:11:24;;;;;;;17.20;7.68;;;;;;;0.19;100.00;99648.13;4485229;31;20181;-71
2022/01/15 02:13:52;;;;;;;15.73;6.47;;;;;;;0.19;100.00;99650.69;4485094;31;20212;-70
2022/01/15 02:16:19;;;;;;;16.92;7.07;;;;;;;0.13;100.00;99662.88;4485114;31;20104;-70
2022/01/15 02:18:46;;;;;;;19.62;7.60;;;;;;;0.10;100.00;99665.53;4485003;31;20159;-71
2022/01/15 02:23:44;;;;;;;18.87;7.10;;;;;;;-0.04;100.00;99673.72;4484896;31;20126;-71
2022/01/15 02:26:25;;;;;;;17.95;8.43;;;;;;;-0.06;100.00;99654.91;4485334;31;20137;-71
2022/01/15 02:28:57;;;;;;;18.30;7.65;;;;;;;-0.20;100.00;99663.06;4485030;31;20084;-71
2022/01/15 02:31:26;;;;;;;23.65;7.78;;;;;;;-0.20;100.00;99663.06;4485082;31;20390;-71
2022/01/15 02:33:55;;;;;;;15.98;7.70;;;;;;;-0.21;100.00;99665.69;4485119;32;20157;-70
2022/01/15 02:36:25;;;;;;;15.75;7.45;;;;;;;-0.25;100.00;99662.34;4484796;31;20111;-71
2022/01/15 02:38:52;;;;;;;17.48;7.60;;;;;;;-0.27;100.00;99666.69;4485291;31;20115;-71
2022/01/15 02:41:31;;;;;;;13.77;6.10;;;;;;;-0.39;100.00;99669.66;4484921;31;20927;-71
2022/01/15 02:44:00;;;;;;;12.25;6.37;;;;;;;-0.29;100.00;99667.63;4484376;32;20118;-70
2022/01/15 02:48:58;;;;;;;20.48;8.02;;;;;;;-0.23;100.00;99665.72;4484779;31;20449;-70
2022/01/15 02:51:31;;;;;;;14.45;6.85;;;;;;;-0.13;100.00;99652.56;4484767;31;20118;-70
2022/01/15 02:53:59;;;;;;;19.92;8.07;;;;;;;-0.13;100.00;99655.12;4484905;31;20096;-71
2022/01/15 02:56:29;;;;;;;17.65;7.32;;;;;;;-0.16;100.00;99660.38;4484606;32;20109;-70
2022/01/15 02:58:56;;;;;;;14.30;6.53;;;;;;;-0.21;100.00;99651.06;4484667;31;20103;-70
2022/01/15 03:01:23;;;;;;;17.00;7.93;;;;;;;-0.21;100.00;99655.38;4484840;31;20593;-71
2022/01/15 03:03:51;;;;;;;14.55;7.90;;;;;;;-0.26;100.00;99663.25;4484748;32;20147;-71
2022/01/15 03:06:20;;;;;;;15.50;7.25;;;;;;;-0.31;100.00;99665.09;4484662;31;20160;-70
2022/01/15 03:08:48;;;;;;;17.37;7.47;;;;;;;-0.37;100.00;99652.41;4484952;31;20111;-71
2022/01/15 03:11:16;;;;;;;14.02;7.28;;;;;;;-0.47;100.00;99659.59;4484723;31;20104;-70
2022/01/15 03:13:44;;;;;;;14.38;6.87;;;;;;;-0.47;100.00;99653.56;4484590;31;20125;-71
2022/01/15 03:16:14;;;;;;;14.43;5.85;;;;;;;-0.51;100.00;99655.41;4484451;31;20100;-70
2022/01/15 03:18:42;;;;;;;15.05;6.80;;;;;;;-0.49;100.00;99652.78;4484324;32;20097;-70
2022/01/15 03:21:09;;;;;;;11.05;5.75;;;;;;;-0.41;100.00;99632.78;4484543;31;20108;-70
2022/01/15 03:23:37;;;;;;;16.20;7.37;;;;;;;-0.44;100.00;99627.75;4484394;31;20450;-70
2022/01/15 03:26:05;;;;;;;14.57;5.70;;;;;;;-0.46;100.00;99621.81;4484365;31;20084;-70
2022/01/15 03:28:32;;;;;;;13.65;7.43;;;;;;;-0.37;100.00;99624.09;4484267;31;20469;-70
2022/01/15 03:30:59;;;;;;;12.27;5.82;;;;;;;-0.31;100.00;99629.06;4484287;31;20092;-70
2022/01/15 03:33:27;;;;;;;14.18;6.35;;;;;;;-0.29;100.00;99627.25;4484485;31;20096;-70
2022/01/15 03:35:54;;;;;;;15.20;6.82;;;;;;;-0.31;100.00;99623.91;4484038;31;20088;-70
2022/01/15 03:38:21;;;;;;;16.52;7.10;;;;;;;-0.33;100.00;99633.41;4484262;31;20476;-70
2022/01/15 03:40:51;;;;;;;13.80;7.00;;;;;;;-0.32;100.00;99632.50;4484175;31;20447;-71
2022/01/15 03:43:18;;;;;;;14.35;7.75;;;;;;;-0.30;100.00;99622.16;4484280;31;20089;-71
2022/01/15 03:45:46;;;;;;;13.82;6.37;;;;;;;-0.32;100.00;99635.09;4484102;31;20093;-71
2022/01/15 03:48:13;;;;;;;13.20;6.82;;;;;;;-0.28;100.00;99626.38;4484098;31;20470;-71
2022/01/15 03:50:40;;;;;;;14.57;7.05;;;;;;;-0.30;100.00;99630.75;4483818;31;20118;-71
2022/01/15 03:53:07;;;;;;;12.20;6.28;;;;;;;-0.32;100.00;99637.66;4483794;31;20096;-71
2022/01/15 03:55:35;;;;;;;18.35;8.45;;;;;;;-0.27;100.00;99625.50;4484553;31;20164;-71
2022/01/15 03:58:02;;;;;;;13.27;5.97;;;;;;;-0.34;100.00;99629.16;4486364;31;20096;-71
2022/01/15 04:00:29;;;;;;;13.93;6.62;;;;;;;-0.36;100.00;99644.66;4485840;31;20390;-71
2022/01/15 04:02:58;;;;;;;15.75;6.70;;;;;;;-0.33;100.00;99642.84;4486162;32;20126;-71
2022/01/15 04:05:26;;;;;;;16.52;7.35;;;;;;;-0.35;100.00;99653.19;4485927;31;20133;-71
2022/01/15 04:07:53;;;;;;;15.73;6.90;;;;;;;-0.34;100.00;99664.34;4486020;31;20169;-71
2022/01/15 04:10:20;;;;;;;20.83;8.18;;;;;;;-0.33;100.00;99655.72;4486359;31;20116;-70
2022/01/15 04:12:48;;;;;;;11.63;4.97;;;;;;;-0.34;100.00;99674.66;4486117;31;20088;-71
2022/01/15 04:15:16;;;;;;;18.12;7.75;;;;;;;-0.32;100.00;99681.44;4485956;31;20164;-71
2022/01/15 04:17:47;;;;;;;14.77;6.03;;;;;;;-0.37;100.00;99680.72;4485925;31;20115;-71
2022/01/15 04:20:18;;;;;;;15.82;6.90;;;;;;;-0.31;100.00;99687.44;4485924;31;20124;-70
2022/01/15 04:22:46;;;;;;;11.93;5.68;;;;;;;-0.27;100.00;99686.44;4484715;32;20097;-71
2022/01/15 04:25:13;;;;;;;11.02;5.53;;;;;;;-0.24;100.00;99681.22;4485926;31;20100;-71
2022/01/15 04:27:41;;;;;;;15.88;6.80;;;;;;;-0.21;100.00;99665.69;4485857;31;20088;-71
2022/01/15 04:30:09;;;;;;;14.20;6.57;;;;;;;-0.27;100.00;99674.44;4485840;31;20386;-71
2022/01/15 04:32:38;;;;;;;13.02;5.75;;;;;;;-0.25;100.00;99679.53;4485877;31;20100;-71
2022/01/15 04:35:05;;;;;;;14.68;5.35;;;;;;;-0.26;100.00;99691.56;4486003;32;20413;-71
2022/01/15 04:37:38;;;;;;;13.10;5.95;;;;;;;-0.21;100.00;99694.84;4485781;31;20088;-71
2022/01/15 04:40:07;;;;;;;15.57;6.15;;;;;;;-0.12;100.00;99698.88;4485919;31;20093;-71
2022/01/15 04:42:35;;;;;;;13.43;5.75;;;;;;;-0.05;100.00;99707.25;4485922;31;20097;-71
2022/01/15 04:45:06;;;;;;;13.52;5.75;;;;;;;-0.08;100.00;99691.88;4485843;31;20111;-71
2022/01/15 04:47:35;;;;;;;14.00;6.05;;;;;;;-0.08;100.00;99697.03;4485846;31;20081;-71
2022/01/15 04:50:03;;;;;;;9.93;4.95;;;;;;;-0.01;100.00;99691.66;4485615;31;20105;-71
2022/01/15 04:52:33;;;;;;;11.82;5.55;;;;;;;-0.06;100.00;99693.53;4485483;31;20106;-70
2022/01/15 04:55:04;;;;;;;10.35;5.22;;;;;;;-0.08;100.00;99691.88;4485685;31;20088;-71
2022/01/15 04:57:31;;;;;;;8.40;3.70;;;;;;;0.01;100.00;99686.44;4485843;31;20111;-70
2022/01/15 04:59:58;;;;;;;13.02;5.47;;;;;;;-0.04;100.00;99690.91;4485624;31;20134;-71
2022/01/15 05:02:26;;;;;;;12.98;6.18;;;;;;;-0.08;100.00;99677.25;4469884;32;20123;-71
2022/01/15 05:04:53;;;;;;;13.13;5.35;;;;;;;-0.08;100.00;99676.44;4470138;32;20163;-71
2022/01/15 05:07:21;;;;;;;10.88;4.72;;;;;;;-0.19;100.00;99672.44;4469498;32;20559;-71
2022/01/15 05:09:49;;;;;;;14.82;6.55;;;;;;;-0.16;100.00;99678.41;4469904;32;20092;-71
2022/01/15 05:14:50;;;;;;;7.90;4.68;;;;;;;-0.16;100.00;99673.25;4469887;32;20149;-70
2022/01/15 05:17:17;;;;;;;14.55;7.50;;;;;;;-0.21;100.00;99684.53;4469985;32;20089;-71
2022/01/15 05:19:45;;;;;;;15.38;7.93;;;;;;;-0.15;100.00;99696.41;4469888;32;20131;-70
2022/01/15 05:22:12;;;;;;;12.02;5.85;;;;;;;-0.19;100.00;99694.78;4485408;32;20157;-71
2022/01/15 05:24:39;;;;;;;10.73;5.25;;;;;;;-0.11;100.00;99710.00;4485940;32;20088;-71
2022/01/15 05:27:07;;;;;;;9.45;4.95;;;;;;;-0.05;100.00;99682.31;4485558;32;20119;-71
2022/01/15 05:29:34;;;;;;;10.73;5.70;;;;;;;-0.02;100.00;99682.22;4485391;31;20101;-71
2022/01/15 05:32:02;;;;;;;10.93;4.32;;;;;;;-0.04;100.00;99696.06;4485477;31;20101;-71
2022/01/15 05:34:34;;;;;;;10.50;5.53;;;;;;;-0.07;100.00;99688.44;4485515;31;20111;-71
2022/01/15 05:37:03;;;;;;;11.82;5.28;;;;;;;-0.09;100.00;99685.03;4485401;32;20161;-71
2022/01/15 05:39:30;;;;;;;12.07;5.72;;;;;;;-0.06;100.00;99684.94;4485358;31;20540;-71
2022/01/15 05:41:57;;;;;;;9.73;4.40;;;;;;;-0.04;100.00;99694.31;4485478;31;20582;-71
2022/01/15 05:44:25;;;;;;;10.90;5.18;;;;;;;-0.07;100.00;99698.72;4485537;31;20093;-71
2022/01/15 05:46:52;;;;;;;10.57;4.10;;;;;;;-0.08;100.00;99697.03;4485607;31;20088;-71
2022/01/15 05:49:19;;;;;;;9.88;4.47;;;;;;;-0.09;100.00;99700.50;4485180;31;20093;-71
2022/01/15 05:51:46;;;;;;;15.48;5.32;;;;;;;-0.17;100.00;99703.31;4485247;31;20100;-71
2022/01/15 05:54:13;;;;;;;11.25;4.72;;;;;;;-0.11;100.00;99702.28;4485214;31;20092;-70
2022/01/15 05:56:40;;;;;;;6.28;3.33;;;;;;;-0.06;100.00;99711.56;4485318;31;20134;-70
2022/01/15 05:59:08;;;;;;;8.90;4.75;;;;;;;-0.04;100.00;99709.78;4485204;31;20116;-70
2022/01/15 06:01:36;;;;;;;8.70;4.18;;;;;;;-0.01;100.00;99716.56;4485219;31;20123;-70
2022/01/15 06:04:04;;;;;;;12.18;5.45;;;;;;;-0.05;100.00;99722.69;4485144;32;20159;-70
2022/01/15 06:06:32;;;;;;;10.15;4.15;;;;;;;-0.06;100.00;99713.28;4485313;31;20089;-71
2022/01/15 06:08:59;;;;;;;10.50;5.25;;;;;;;-0.11;100.00;99715.16;4485244;31;20434;-70
2022/01/15 06:11:27;;;;;;;9.38;3.90;;;;;;;-0.08;100.00;99727.94;4485287;31;20143;-70
2022/01/15 06:13:55;;;;;;;15.25;5.68;;;;;;;-0.08;100.00;99725.38;4485018;31;20101;-70
2022/01/15 06:16:23;;;;;;;10.70;4.40;;;;;;;-0.16;100.00;99729.91;4485211;31;20157;-70
2022/01/15 06:18:51;;;;;;;7.78;3.50;;;;;;;-0.21;100.00;99730.88;4483920;32;20199;-70
2022/01/15 06:21:18;;;;;;;15.80;5.40;;;;;;;-0.23;100.00;99737.81;4485456;31;20096;-71
2022/01/15 06:23:45;;;;;;;14.63;5.22;;;;;;;-0.24;100.00;99736.13;4485067;31;20101;-70
2022/01/15 06:26:13;;;;;;;10.20;4.03;;;;;;;-0.28;100.00;99734.53;4485162;32;20127;-71
2022/01/15 06:28:40;;;;;;;8.88;3.45;;;;;;;-0.21;100.00;99738.62;4484823;32;20115;-70
2022/01/15 06:31:07;;;;;;;16.92;5.57;;;;;;;-0.21;100.00;99742.94;4485108;31;20096;-70
2022/01/15 06:33:35;;;;;;;7.43;3.22;;;;;;;-0.26;100.00;99740.50;4484922;31;20140;-70
2022/01/15 06:36:02;;;;;;;10.43;5.75;;;;;;;-0.15;100.00;99741.87;4485311;31;20107;-70
2022/01/15 06:38:29;;;;;;;8.45;3.78;;;;;;;-0.19;100.00;99739.41;4484925;31;20124;-70
2022/01/15 06:40:56;;;;;;;10.23;4.00;;;;;;;-0.17;100.00;99744.50;4485026;32;20115;-70
2022/01/15 06:43:23;;;;;;;11.00;4.72;;;;;;;-0.13;100.00;99746.12;4484874;31;20092;-70
2022/01/15 06:45:50;;;;;;;9.98;4.30;;;;;;;-0.13;100.00;99740.13;4484960;31;20112;-70
2022/01/15 06:48:18;;;;;;;7.50;3.90;;;;;;;-0.15;100.00;99747.03;4484859;31;20092;-70
2022/01/15 06:50:45;;;;;;;8.50;4.22;;;;;;;-0.07;100.00;99740.78;4484745;31;20461;-70
2022/01/15 06:53:12;;;;;;;10.23;3.70;;;;;;;-0.06;100.00;99733.87;4484498;31;20696;-71
2022/01/15 06:55:40;;;;;;;15.05;4.37;;;;;;;-0.06;100.00;99742.47;4484770;31;20460;-71
2022/01/15 06:58:07;;;;;;;11.40;4.20;;;;;;;0.02;100.00;99744.81;4484747;31;20147;-70
2022/01/15 07:00:34;;;;;;;9.25;4.55;;;;;;;0.06;100.00;99749.00;4484569;31;20445;-71
2022/01/15 07:03:02;;;;;;;7.47;3.72;;;;;;;0.12;100.00;99759.09;4484672;31;20175;-71
2022/01/15 07:05:30;;;;;;;11.23;4.20;;;;;;;0.17;99.42;99738.34;4484705;31;20093;-70
2022/01/15 07:07:57;;;;;;;8.77;3.83;;;;;;;0.20;98.63;99743.41;4483618;32;20419;-70
2022/01/15 07:10:24;;;;;;;10.52;4.93;;;;;;;0.29;98.18;99753.44;4484846;32;20088;-71
2022/01/15 07:12:52;;;;;;;6.40;3.25;;;;;;;0.34;97.63;99761.00;4484652;31;21006;-70
2022/01/15 07:15:19;;;;;;;6.78;3.12;;;;;;;0.36;97.03;99761.81;4484513;31;20091;-71
2022/01/15 07:17:48;;;;;;;11.65;4.75;;;;;;;0.35;96.75;99763.53;4484449;31;20123;-71
2022/01/15 07:20:18;;;;;;;5.75;3.12;;;;;;;0.38;96.34;99762.63;4483158;32;20108;-71
2022/01/15 07:22:45;;;;;;;10.60;2.95;;;;;;;0.46;95.55;99773.50;4484492;31;20176;-70
2022/01/15 07:25:13;;;;;;;10.15;3.30;;;;;;;0.59;94.68;99762.81;4484394;31;20147;-70
2022/01/15 07:27:40;;;;;;;8.88;3.83;;;;;;;0.63;94.14;99778.13;4484388;31;20092;-70
2022/01/15 07:30:11;;;;;;;9.88;3.87;;;;;;;0.65;94.02;99768.62;4484597;31;20118;-70
2022/01/15 07:32:40;;;;;;;10.48;3.35;;;;;;;0.70;93.42;99778.78;4486421;31;20092;-70
2022/01/15 07:35:11;;;;;;;12.00;3.30;;;;;;;0.78;92.62;99781.94;4486283;31;20084;-71
2022/01/15 07:37:38;;;;;;;8.20;3.70;;;;;;;0.83;92.39;99774.06;4486352;32;20130;-70
2022/01/15 07:40:07;;;;;;;6.15;2.40;;;;;;;0.89;91.76;99781.59;4486248;31;20123;-70
2022/01/15 07:42:37;;;;;;;8.68;3.45;;;;;;;0.98;91.25;99780.44;4486193;31;20088;-70
2022/01/15 07:45:10;;;;;;;9.98;3.28;;;;;;;1.01;90.71;99799.22;4486211;31;20112;-70
2022/01/15 07:47:38;;;;;;;12.20;2.97;;;;;;;1.03;90.79;99779.41;4486205;31;20088;-70
2022/01/15 07:50:08;;;;;;;16.00;4.05;;;;;;;1.12;90.12;99795.47;4486043;31;20626;-71
2022/01/15 07:52:35;;;;;;;5.00;2.83;;;;;;;1.13;89.73;99785.09;4486096;31;20101;-70
2022/01/15 07:55:03;;;;;;;10.77;3.70;;;;;;;1.20;89.41;99796.88;4486085;31;20108;-70
2022/01/15 07:57:51;;;;;;;9.48;2.33;;;;;;;1.23;89.13;99786.47;4486191;31;20092;-71
2022/01/15 08:00:19;;;;;;;21.30;4.20;;;;;;;1.32;88.08;99794.81;4486057;31;20106;-70
2022/01/15 08:02:46;;;;;;;9.85;4.03;;;;;;;1.35;87.84;99797.28;4486198;31;20100;-71
2022/01/15 08:05:13;;;;;;;7.62;3.08;;;;;;;1.42;87.04;99814.22;4486059;31;20145;-70
2022/01/15 08:07:42;;;;;;;5.80;2.78;;;;;;;1.48;87.01;99803.66;4486318;31;20104;-71
2022/01/15 08:10:09;;;;;;;5.40;2.58;;;;;;;1.54;86.68;99806.03;4485984;31;20099;-71
2022/01/15 08:12:47;;;;;;;7.57;2.92;;;;;;;1.59;86.38;99826.56;4486058;31;20124;-71
2022/01/15 08:15:18;;;;;;;7.62;3.33;;;;;;;1.63;85.69;99822.12;4485991;31;20110;-71
2022/01/15 08:17:46;;;;;;;7.05;2.95;;;;;;;1.75;85.87;99829.44;4485925;31;20180;-70
2022/01/15 08:20:13;;;;;;;7.85;2.62;;;;;;;1.75;85.14;99832.84;4485764;31;20446;-71
2022/01/15 08:22:42;;;;;;;7.43;2.80;;;;;;;1.76;85.25;99833.69;4486242;31;20163;-70
2022/01/15 08:25:11;;;;;;;7.37;3.45;;;;;;;1.81;84.68;99828.38;4485930;31;20088;-70
2022/01/15 08:27:38;;;;;;;12.00;3.08;;;;;;;1.85;84.45;99833.37;4486003;31;20123;-71
2022/01/15 08:30:07;;;;;;;9.73;3.30;;;;;;;1.89;84.25;99845.28;4485705;31;20489;-71
2022/01/15 08:32:35;;;;;;;6.30;2.90;;;;;;;1.98;84.16;99841.50;4485942;32;20155;-71
2022/01/15 08:35:03;;;;;;;4.82;3.00;;;;;;;2.11;82.57;99847.06;4485801;31;20107;-71
2022/01/15 08:37:30;;;;;;;5.45;2.30;;;;;;;2.12;81.95;99841.00;4485853;31;20096;-71
2022/01/15 08:39:58;;;;;;;8.02;3.00;;;;;;;2.20;81.25;99838.12;4485795;31;20096;-71
2022/01/15 08:42:25;;;;;;;5.68;2.40;;;;;;;2.20;81.25;99832.97;4484964;31;20206;-71
2022/01/15 08:44:53;;;;;;;9.27;2.72;;;;;;;2.23;80.75;99833.69;4485803;31;20097;-71
2022/01/15 08:47:20;;;;;;;12.15;2.55;;;;;;;2.21;81.15;99840.66;4485822;31;20406;-71
2022/01/15 08:49:47;;;;;;;7.25;2.50;;;;;;;2.40;80.65;99838.22;4485703;31;20096;-71
2022/01/15 08:52:15;;;;;;;6.72;2.15;;;;;;;2.48;79.52;99827.56;4485915;31;20093;-70
2022/01/15 08:54:42;;;;;;;7.72;2.45;;;;;;;2.46;79.78;99825.03;4485468;31;20119;-71
2022/01/15 08:57:09;;;;;;;9.60;3.08;;;;;;;2.52;79.29;99830.91;4485902;31;20108;-71
2022/01/15 08:59:36;;;;;;;9.05;2.05;;;;;;;2.50;79.35;99833.53;4485745;31;20416;-71
2022/01/15 09:02:04;;;;;;;10.50;2.50;;;;;;;2.51;79.01;99826.63;4485573;31;20119;-71
2022/01/15 09:04:31;;;;;;;5.07;2.03;;;;;;;2.51;77.97;99832.63;4485658;31;20201;-71
2022/01/15 09:06:58;;;;;;;6.95;2.33;;;;;;;2.48;77.51;99841.34;4485632;31;20124;-71
2022/01/15 09:09:26;;;;;;;6.22;2.00;;;;;;;2.53;77.14;99836.00;4485831;31;20485;-71
2022/01/15 09:11:53;;;;;;;10.80;2.30;;;;;;;2.57;76.11;99845.31;4485539;31;20080;-70
2022/01/15 09:14:20;;;;;;;6.80;2.92;;;;;;;2.66;76.54;99821.69;4485596;31;20093;-71
2022/01/15 09:16:47;;;;;;;2.25;1.67;;;;;;;2.64;75.30;99833.81;4485480;32;20100;-71
2022/01/15 09:19:15;;;;;;;3.80;1.33;;;;;;;2.66;74.88;99836.34;4485529;31;20445;-71
2022/01/15 09:21:42;;;;;;;9.57;2.30;;;;;;;2.71;74.02;99821.50;4485252;31;20126;-71
2022/01/15 09:24:09;;;;;;;4.95;1.83;;;;;;;2.76;74.87;99822.16;4485573;31;20123;-70
2022/01/15 09:32:09;;;;;;;10.93;2.03;;;;;;;2.93;73.24;99813.69;4485506;31;20110;-70
2022/01/15 09:34:37;;;;;;;11.93;2.55;;;;;;;3.00;72.22;99809.13;4485400;32;20092;-70
2022/01/15 09:37:06;;;;;;;4.87;1.80;;;;;;;3.07;72.45;99804.53;4485233;31;20478;-71
2022/01/15 09:39:34;;;;;;;2.97;1.40;;;;;;;3.13;71.41;99812.88;4485535;31;20092;-70
2022/01/15 09:42:02;;;;;;;4.15;2.00;;;;;;;3.06;71.51;99801.09;4485640;31;20084;-70
2022/01/15 09:44:29;;;;;;;8.15;2.10;;;;;;;2.95;71.77;99804.16;4485410;31;20480;-71
2022/01/15 09:46:56;;;;;;;8.73;2.08;;;;;;;3.12;70.90;99802.56;4485350;31;20104;-70
2022/01/15 09:49:24;;;;;;;4.78;1.70;;;;;;;3.11;71.48;99809.50;4481072;31;126957;-70
2022/01/15 09:51:52;;;;;;;5.75;2.15;;;;;;;3.04;70.84;99796.88;4483950;32;20100;-70
2022/01/15 09:54:19;;;;;;;6.15;1.77;;;;;;;3.13;70.67;99775.78;4485069;31;20488;-71
2022/01/15 09:56:49;;;;;;;6.45;1.85;;;;;;;3.22;70.51;99774.56;4485199;31;20116;-70
2022/01/15 09:59:17;;;;;;;8.40;2.03;;;;;;;3.29;69.53;99769.06;4485255;31;20092;-70
2022/01/15 10:01:46;;;;;;;3.80;1.87;;;;;;;3.17;69.02;99785.13;4484953;31;20383;-71
2022/01/15 10:04:14;;;;;;;6.03;1.98;;;;;;;3.26;68.27;99773.53;4485398;31;20407;-70
2022/01/15 10:07:22;;;;;;;5.65;1.92;;;;;;;3.23;69.48;99769.31;4485111;31;20096;-71
2022/01/15 10:09:50;;;;;;;5.32;2.40;;;;;;;3.28;70.01;99772.53;4451636;32;20151;-70
2022/01/15 10:12:30;;;;;;;3.05;1.35;;;;;;;3.33;67.78;99762.84;4451422;32;20203;-71
2022/01/15 10:15:06;;;;;;;3.80;1.45;;;;;;;3.40;67.46;99768.59;4451403;32;20573;-71
2022/01/15 10:17:35;;;;;;;7.22;1.92;;;;;;;3.48;67.20;99755.28;4451395;32;20170;-71
2022/01/15 10:20:04;;;;;;;6.75;1.67;;;;;;;3.57;67.09;99761.81;4451152;32;20101;-71
2022/01/15 10:22:32;;;;;;;7.93;1.67;;;;;;;3.46;66.39;99757.94;4451321;32;20109;-70
2022/01/15 10:25:05;;;;;;;15.10;2.97;;;;;;;3.54;65.57;99765.37;4451450;32;20096;-71
2022/01/15 10:27:36;;;;;;;5.22;1.60;;;;;;;3.50;66.09;99756.09;4451248;32;20136;-71
2022/01/15 10:30:03;;;;;;;7.40;2.00;;;;;;;3.71;66.29;99762.88;4451265;32;20100;-71
2022/01/15 10:32:32;;;;;;;3.92;1.37;;;;;;;3.79;65.59;99751.34;4451392;32;20357;-71
2022/01/15 10:35:00;;;;;;;5.03;1.60;;;;;;;3.70;64.58;99781.94;4451605;32;20634;-71
2022/01/15 10:37:35;;;;;;;5.40;2.08;;;;;;;3.64;65.33;99765.84;4451100;32;20654;-71
2022/01/15 10:40:06;;;;;;;5.45;2.05;;;;;;;3.65;64.44;99803.75;4460520;32;20084;-71
2022/01/15 10:42:35;;;;;;;5.45;2.12;;;;;;;3.60;64.60;99766.88;4484883;31;20507;-71
2022/01/15 10:45:14;;;;;;;4.07;1.48;;;;;;;3.63;64.74;99770.16;4484876;31;20100;-71
2022/01/15 10:47:43;;;;;;;4.53;1.62;;;;;;;3.63;64.62;99762.38;4485026;31;20088;-71
2022/01/15 10:50:24;;;;;;;6.05;2.35;;;;;;;3.65;65.13;99768.34;4484816;31;20621;-71
2022/01/15 10:52:55;;;;;;;2.28;0.88;;;;;;;3.76;65.16;99761.84;4484827;31;20088;-71
2022/01/15 10:55:31;;;;;;;11.52;2.00;;;;;;;3.94;64.03;99754.97;4484733;31;20558;-70
2022/01/15 10:58:00;;;;;;;10.18;1.83;;;;;;;4.02;63.51;99753.69;4484903;31;20528;-71
2022/01/15 11:00:42;;;;;;;3.85;1.58;;;;;;;4.14;61.50;99757.47;4484575;31;20123;-71
2022/01/15 11:03:12;;;;;;;2.85;1.45;;;;;;;3.84;61.70;99754.56;4484748;31;20136;-71
2022/01/15 11:05:44;;;;;;;4.35;1.52;;;;;;;3.82;62.16;99753.78;4483908;31;20115;-71
2022/01/15 11:08:28;;;;;;;5.18;1.77;;;;;;;3.86;61.19;99743.22;4484743;31;20443;-71
2022/01/15 11:10:57;;;;;;;2.90;1.73;;;;;;;3.94;62.06;99754.97;4484806;31;20171;-71
2022/01/15 11:13:29;;;;;;;7.00;1.65;;;;;;;4.11;60.25;99752.44;4484570;31;20103;-71
2022/01/15 11:16:00;;;;;;;7.10;1.90;;;;;;;4.11;58.71;99741.25;4484614;31;20122;-71
2022/01/15 11:18:33;;;;;;;4.30;1.37;;;;;;;4.21;58.89;99739.88;4484729;31;20101;-71
2022/01/15 11:21:03;;;;;;;6.10;2.22;;;;;;;4.24;59.85;99743.19;4484529;31;20135;-71
2022/01/15 11:23:31;;;;;;;7.97;2.45;;;;;;;4.34;59.52;99724.56;4484545;31;20088;-71
2022/01/15 11:26:01;;;;;;;8.68;2.10;;;;;;;4.30;59.77;99742.06;4484468;31;20104;-71
2022/01/15 11:28:30;;;;;;;1.92;1.10;;;;;;;4.37;59.18;99747.78;4484401;31;20108;-71
2022/01/15 11:31:03;;;;;;;2.92;1.33;;;;;;;4.37;58.58;99732.22;4484656;31;20100;-71
2022/01/15 11:33:36;;;;;;;2.65;1.08;;;;;;;4.32;58.04;99745.41;4483121;32;20131;-71
2022/01/15 11:36:05;;;;;;;6.80;1.90;;;;;;;4.06;58.52;99744.03;4483300;32;20106;-71
2022/01/15 11:38:41;;;;;;;1.37;0.88;;;;;;;4.11;59.48;99736.88;4484549;32;20108;-71
2022/01/15 11:41:33;;;;;;;6.78;1.23;;;;;;;4.18;58.93;99737.41;4484420;31;20156;-71
2022/01/15 11:44:03;;;;;;;4.78;1.70;;;;;;;4.17;58.11;99738.34;4484155;31;20096;-71
2022/01/15 11:46:33;;;;;;;3.83;1.77;;;;;;;4.11;59.00;99749.84;4484520;31;20119;-71
2022/01/15 11:49:29;;;;;;;9.63;2.22;;;;;;;4.24;59.27;99743.19;4484153;31;20088;-71
2022/01/15 11:52:13;;;;;;;5.30;1.77;;;;;;;4.30;59.73;99751.56;4484211;31;20100;-71
2022/01/15 11:54:50;;;;;;;4.20;1.62;;;;;;;4.47;59.19;99764.59;4483919;31;20496;-71
2022/01/15 11:57:23;;;;;;;7.80;1.60;;;;;;;4.58;59.50;99761.47;4483923;31;20164;-71
2022/01/15 11:59:52;;;;;;;6.47;2.30;;;;;;;4.43;59.52;99737.94;4483921;31;20126;-71
2022/01/15 12:02:35;;;;;;;4.80;1.62;;;;;;;4.46;59.50;99743.91;4483816;32;20428;-71
2022/01/15 12:05:15;;;;;;;4.70;1.98;;;;;;;4.39;59.94;99736.41;4484059;31;20152;-71
2022/01/15 12:07:46;;;;;;;7.82;1.98;;;;;;;4.39;60.65;99728.63;4483746;31;20093;-71